Time,TemperatureF,DewpointF,PressureIn,WindDirection,WindDirectionDegrees,WindSpeedMPH,WindSpeedGustMPH,Humidity,HourlyPrecipIn,Conditions,Clouds,dailyrainin,SoftwareType,DateUTC
2013-08-01 00:02:00,63.0,62.4,29.99,North,10,0.0,0.0,98,0.04,,,0.54,meteohub,2013-08-01 04:02:00,
2013-08-01 00:07:00,63.0,62.4,29.99,NE,55,0.0,0.0,98,0.04,,,0.00,meteohub,2013-08-01 04:07:00,
2013-08-01 00:12:00,63.0,62.4,29.99,NE,55,0.0,0.0,98,0.04,,,0.00,meteohub,2013-08-01 04:12:00,
2013-08-01 00:17:00,63.0,62.4,29.99,East,100,0.0,0.0,98,0.04,,,0.00,meteohub,2013-08-01 04:17:00,
2013-08-01 00:22:00,63.0,62.4,29.99,East,100,0.0,0.0,98,0.04,,,0.00,meteohub,2013-08-01 04:22:00,
2013-08-01 00:32:00,62.8,62.2,29.99,South,190,0.0,0.0,98,0.00,,,0.00,meteohub,2013-08-01 04:32:00,
2013-08-01 00:37:00,63.0,62.4,29.99,South,190,0.0,0.0,98,0.00,,,0.00,meteohub,2013-08-01 04:37:00,
2013-08-01 00:42:00,63.0,62.4,29.96,SE,145,0.0,0.0,98,0.00,,,0.00,meteohub,2013-08-01 04:42:00,
2013-08-01 00:47:00,62.8,62.2,29.96,SE,145,0.0,0.0,98,0.00,,,0.00,meteohub,2013-08-01 04:47:00,
2013-08-01 00:52:00,63.0,62.4,29.96,SE,145,0.0,0.0,98,0.00,,,0.00,meteohub,2013-08-01 04:52:00,
2013-08-01 00:57:00,63.0,62.4,29.99,SE,145,0.0,0.0,98,0.00,,,0.00,meteohub,2013-08-01 04:57:00,
2013-08-01 01:02:00,63.0,62.4,29.99,SE,145,0.0,0.0,98,0.00,,,0.00,meteohub,2013-08-01 05:02:00,
2013-08-01 01:12:00,62.8,62.2,29.99,SE,145,0.0,0.0,98,0.00,,,0.00,meteohub,2013-08-01 05:12:00,
2013-08-01 01:17:00,63.0,62.4,30.01,SE,145,0.0,0.0,98,0.00,,,0.00,meteohub,2013-08-01 05:17:00,
2013-08-01 01:27:00,62.8,62.2,29.99,NE,55,0.0,0.0,98,0.00,,,0.00,meteohub,2013-08-01 05:27:00,
2013-08-01 01:37:00,62.8,62.2,29.99,North,10,0.0,0.0,98,0.00,,,0.00,meteohub,2013-08-01 05:37:00,
2013-08-01 01:42:00,62.8,62.2,29.99,NNE,32,0.0,4.0,98,0.00,,,0.00,meteohub,2013-08-01 05:42:00,
2013-08-01 01:52:00,62.8,62.2,29.99,ENE,78,0.0,0.0,98,0.00,,,0.00,meteohub,2013-08-01 05:52:00,
2013-08-01 01:57:00,62.8,62.2,29.99,ENE,78,0.0,0.0,98,0.00,,,0.00,meteohub,2013-08-01 05:57:00,
2013-08-01 02:02:00,62.8,62.2,29.99,SW,235,0.0,0.0,98,0.00,,,0.00,meteohub,2013-08-01 06:02:00,
2013-08-01 02:07:00,62.8,62.2,29.99,NW,325,0.0,0.0,98,0.00,,,0.00,meteohub,2013-08-01 06:07:00,
2013-08-01 02:12:00,62.6,62.1,29.99,NW,325,0.0,0.0,98,0.00,,,0.00,meteohub,2013-08-01 06:12:00,
2013-08-01 02:22:00,62.6,62.1,29.96,NW,325,0.0,0.0,98,0.00,,,0.00,meteohub,2013-08-01 06:22:00,
2013-08-01 02:32:00,62.8,62.2,29.96,West,280,0.0,0.0,98,0.00,,,0.00,meteohub,2013-08-01 06:32:00,
2013-08-01 02:37:00,62.8,62.2,29.96,WSW,258,0.0,0.0,98,0.00,,,0.00,meteohub,2013-08-01 06:37:00,
2013-08-01 02:42:00,62.8,62.2,29.96,WSW,258,0.0,0.0,98,0.00,,,0.00,meteohub,2013-08-01 06:42:00,
2013-08-01 02:47:00,62.8,62.2,29.96,WSW,258,0.0,0.0,98,0.00,,,0.00,meteohub,2013-08-01 06:47:00,
2013-08-01 02:52:00,62.8,62.2,29.96,WSW,258,0.0,0.0,98,0.00,,,0.00,meteohub,2013-08-01 06:52:00,
2013-08-01 02:57:00,62.8,62.2,29.96,North,10,0.0,0.0,98,0.00,,,0.00,meteohub,2013-08-01 06:57:00,
2013-08-01 03:02:00,62.8,62.2,29.96,North,10,0.0,0.0,98,0.00,,,0.00,meteohub,2013-08-01 07:02:00,
2013-08-01 03:07:00,63.0,62.4,29.96,North,10,0.0,0.0,98,0.00,,,0.00,meteohub,2013-08-01 07:07:00,
2013-08-01 03:12:00,62.8,62.2,29.96,North,10,0.0,0.0,98,0.00,,,0.00,meteohub,2013-08-01 07:12:00,
2013-08-01 03:17:00,63.0,62.4,29.96,North,10,0.0,0.0,98,0.00,,,0.00,meteohub,2013-08-01 07:17:00,
2013-08-01 03:27:00,63.0,62.4,29.93,North,10,0.0,0.0,98,0.04,,,0.04,meteohub,2013-08-01 07:27:00,
2013-08-01 03:32:00,63.0,62.4,29.93,NNE,32,0.0,0.0,98,0.04,,,0.04,meteohub,2013-08-01 07:32:00,
2013-08-01 03:37:00,63.0,62.4,29.93,NNE,32,0.0,0.0,98,0.04,,,0.04,meteohub,2013-08-01 07:37:00,
2013-08-01 03:42:00,62.8,62.2,29.93,NNE,32,0.0,0.0,98,0.04,,,0.04,meteohub,2013-08-01 07:42:00,
2013-08-01 03:47:00,63.0,62.4,29.93,South,190,0.0,0.0,98,0.04,,,0.04,meteohub,2013-08-01 07:47:00,
2013-08-01 03:52:00,63.0,62.4,29.93,South,190,0.0,0.0,98,0.04,,,0.04,meteohub,2013-08-01 07:52:00,
2013-08-01 04:02:00,63.0,62.4,29.93,South,190,0.0,0.0,98,0.04,,,0.04,meteohub,2013-08-01 08:02:00,
2013-08-01 04:07:00,63.0,62.4,29.93,South,190,0.0,0.0,98,0.04,,,0.04,meteohub,2013-08-01 08:07:00,
2013-08-01 04:12:00,63.0,62.4,29.93,South,190,0.0,0.0,98,0.04,,,0.04,meteohub,2013-08-01 08:12:00,
2013-08-01 04:18:00,62.8,62.2,29.93,West,280,0.0,0.0,98,0.00,,,0.04,meteohub,2013-08-01 08:18:00,
2013-08-01 04:27:00,62.8,62.2,29.93,West,280,0.0,0.0,98,0.00,,,0.04,meteohub,2013-08-01 08:27:00,
2013-08-01 04:32:00,62.8,62.2,29.93,West,280,0.0,0.0,98,0.00,,,0.04,meteohub,2013-08-01 08:32:00,
2013-08-01 04:37:00,62.8,62.2,29.93,West,280,0.0,0.0,98,0.04,,,0.08,meteohub,2013-08-01 08:37:00,
2013-08-01 04:47:00,62.8,62.2,29.93,West,280,0.0,0.0,98,0.04,,,0.08,meteohub,2013-08-01 08:47:00,
2013-08-01 04:52:00,62.8,62.2,29.93,West,280,0.0,0.0,98,0.04,,,0.08,meteohub,2013-08-01 08:52:00,
2013-08-01 05:02:00,62.8,62.2,29.93,West,280,0.0,0.0,98,0.04,,,0.08,meteohub,2013-08-01 09:02:00,
2013-08-01 05:07:00,62.8,62.2,29.93,West,280,0.0,0.0,98,0.04,,,0.08,meteohub,2013-08-01 09:07:00,
2013-08-01 05:17:00,62.8,62.2,29.93,North,10,0.0,0.0,98,0.04,,,0.08,meteohub,2013-08-01 09:17:00,
2013-08-01 05:22:00,62.6,62.1,29.93,NNW,348,0.0,0.0,98,0.04,,,0.08,meteohub,2013-08-01 09:22:00,
2013-08-01 05:27:00,62.6,62.1,29.93,NNW,348,0.0,0.0,98,0.04,,,0.08,meteohub,2013-08-01 09:27:00,
2013-08-01 05:32:00,62.6,62.1,29.93,NNW,348,0.0,0.0,98,0.04,,,0.08,meteohub,2013-08-01 09:32:00,
2013-08-01 05:37:00,62.6,62.1,29.93,NNW,348,0.0,0.0,98,0.00,,,0.08,meteohub,2013-08-01 09:37:00,
2013-08-01 05:47:00,62.8,62.2,29.93,SSW,212,0.0,0.0,98,0.00,,,0.08,meteohub,2013-08-01 09:47:00,
2013-08-01 05:52:00,62.8,62.2,29.93,SSW,212,0.0,0.0,98,0.00,,,0.08,meteohub,2013-08-01 09:52:00,
2013-08-01 06:02:00,62.6,62.1,29.93,NW,325,0.0,0.0,98,0.00,,,0.08,meteohub,2013-08-01 10:02:00,
2013-08-01 06:17:00,62.6,62.1,29.90,South,190,0.0,0.0,98,0.00,,,0.08,meteohub,2013-08-01 10:17:00,
2013-08-01 06:27:00,62.8,62.2,29.93,SE,145,0.0,0.0,98,0.00,,,0.08,meteohub,2013-08-01 10:27:00,
2013-08-01 06:32:00,62.8,62.2,29.93,SE,145,0.0,0.0,98,0.00,,,0.08,meteohub,2013-08-01 10:32:00,
2013-08-01 06:42:00,62.8,62.2,29.90,SE,145,0.0,0.0,98,0.00,,,0.08,meteohub,2013-08-01 10:42:00,
2013-08-01 06:52:00,63.0,62.4,29.90,SE,145,0.0,0.0,98,0.00,,,0.08,meteohub,2013-08-01 10:52:00,
2013-08-01 07:02:00,63.0,62.4,29.93,SE,145,0.0,0.0,98,0.00,,,0.08,meteohub,2013-08-01 11:02:00,
2013-08-01 07:12:00,63.0,62.4,29.93,NNW,348,0.0,0.0,98,0.00,,,0.08,meteohub,2013-08-01 11:12:00,
2013-08-01 07:17:00,63.0,62.4,29.93,NNW,348,0.0,0.0,98,0.00,,,0.08,meteohub,2013-08-01 11:17:00,
2013-08-01 07:22:00,63.0,62.4,29.93,NNE,32,0.0,0.0,98,0.00,,,0.08,meteohub,2013-08-01 11:22:00,
2013-08-01 07:27:00,63.0,62.4,29.93,NW,325,0.0,0.0,98,0.00,,,0.08,meteohub,2013-08-01 11:27:00,
2013-08-01 07:32:00,63.0,62.4,29.93,NNW,348,0.0,0.0,98,0.00,,,0.08,meteohub,2013-08-01 11:32:00,
2013-08-01 07:37:00,63.1,62.6,29.93,West,280,0.0,0.0,98,0.00,,,0.08,meteohub,2013-08-01 11:37:00,
2013-08-01 07:47:00,63.3,62.8,29.93,ESE,122,0.0,0.0,98,0.00,,,0.08,meteohub,2013-08-01 11:47:00,
2013-08-01 07:52:00,63.5,63.0,29.93,ESE,122,0.0,0.0,98,0.00,,,0.08,meteohub,2013-08-01 11:52:00,
2013-08-01 07:57:00,63.5,63.0,29.93,ENE,78,0.0,0.0,98,0.00,,,0.08,meteohub,2013-08-01 11:57:00,
2013-08-01 08:07:00,63.9,63.3,29.93,ENE,78,0.0,0.0,98,0.00,,,0.08,meteohub,2013-08-01 12:07:00,
2013-08-01 08:12:00,63.9,63.3,29.93,ENE,78,0.0,0.0,98,0.00,,,0.08,meteohub,2013-08-01 12:12:00,
2013-08-01 08:17:00,64.4,63.9,29.93,NNE,32,0.0,0.0,98,0.00,,,0.08,meteohub,2013-08-01 12:17:00,
2013-08-01 08:22:00,64.4,63.9,29.93,NNE,32,0.0,0.0,98,0.00,,,0.08,meteohub,2013-08-01 12:22:00,
2013-08-01 08:32:00,64.6,64.0,29.93,ENE,78,0.0,0.0,98,0.00,,,0.08,meteohub,2013-08-01 12:32:00,
2013-08-01 08:37:00,64.8,64.2,29.93,ENE,78,0.0,0.0,98,0.00,,,0.08,meteohub,2013-08-01 12:37:00,
2013-08-01 08:47:00,65.3,64.8,29.93,NE,55,0.0,0.0,98,0.00,,,0.08,meteohub,2013-08-01 12:47:00,
2013-08-01 08:57:00,65.7,65.1,29.93,NW,325,0.0,0.0,98,0.00,,,0.08,meteohub,2013-08-01 12:57:00,
2013-08-01 09:07:00,66.0,65.5,29.96,SW,235,0.0,0.0,98,0.00,,,0.08,meteohub,2013-08-01 13:07:00,
2013-08-01 09:17:00,66.4,65.8,29.96,SW,235,0.0,0.0,98,0.00,,,0.08,meteohub,2013-08-01 13:17:00,
2013-08-01 09:22:00,66.4,65.8,29.96,SE,145,0.0,0.0,98,0.00,,,0.08,meteohub,2013-08-01 13:22:00,
2013-08-01 09:27:00,66.7,66.2,29.93,NW,325,0.0,0.0,98,0.00,,,0.08,meteohub,2013-08-01 13:27:00,
2013-08-01 09:32:00,66.9,66.0,29.93,WNW,302,0.0,0.0,97,0.00,,,0.08,meteohub,2013-08-01 13:32:00,
2013-08-01 09:37:00,67.3,66.4,29.93,SW,235,0.0,0.0,97,0.00,,,0.08,meteohub,2013-08-01 13:37:00,
2013-08-01 09:47:00,67.6,66.7,29.93,South,190,0.0,0.0,97,0.00,,,0.08,meteohub,2013-08-01 13:47:00,
2013-08-01 09:57:00,68.0,66.7,29.96,NNW,348,0.0,0.0,96,0.00,,,0.08,meteohub,2013-08-01 13:57:00,
2013-08-01 10:07:00,68.4,66.9,29.96,North,10,0.0,5.0,95,0.00,,,0.08,meteohub,2013-08-01 14:07:00,
2013-08-01 10:12:00,68.7,67.5,29.93,East,100,0.0,6.0,96,0.00,,,0.08,meteohub,2013-08-01 14:12:00,
2013-08-01 10:22:00,68.9,67.5,29.93,WNW,302,0.0,6.0,95,0.00,,,0.08,meteohub,2013-08-01 14:22:00,
2013-08-01 10:27:00,69.3,67.5,29.96,ENE,78,0.0,6.0,94,0.00,,,0.08,meteohub,2013-08-01 14:27:00,
2013-08-01 10:37:00,69.4,67.6,29.96,South,190,3.0,5.0,94,0.00,,,0.08,meteohub,2013-08-01 14:37:00,
2013-08-01 10:47:00,69.6,67.3,29.93,North,10,6.0,7.0,92,0.00,,,0.08,meteohub,2013-08-01 14:47:00,
2013-08-01 10:57:00,70.2,67.5,29.96,SSW,212,4.0,7.0,91,0.00,,,0.08,meteohub,2013-08-01 14:57:00,
2013-08-01 11:07:00,70.3,66.9,29.96,WSW,258,7.0,8.0,89,0.00,,,0.08,meteohub,2013-08-01 15:07:00,
2013-08-01 11:17:00,70.2,66.7,29.96,East,100,0.0,9.0,89,0.00,,,0.08,meteohub,2013-08-01 15:17:00,
2013-08-01 11:22:00,70.2,67.1,29.96,South,190,3.0,9.0,90,0.00,,,0.08,meteohub,2013-08-01 15:22:00,
2013-08-01 11:27:00,70.2,66.7,29.96,SSW,212,3.0,6.0,89,0.00,,,0.08,meteohub,2013-08-01 15:27:00,
2013-08-01 11:32:00,70.2,66.7,29.96,NNW,348,0.0,6.0,89,0.00,,,0.08,meteohub,2013-08-01 15:32:00,
2013-08-01 11:47:00,71.2,67.8,29.96,NNW,348,2.0,7.0,89,0.00,,,0.08,meteohub,2013-08-01 15:47:00,
2013-08-01 11:52:00,71.8,68.0,29.96,WNW,302,9.0,9.0,88,0.00,,,0.08,meteohub,2013-08-01 15:52:00,
2013-08-01 11:57:00,72.5,67.5,29.96,North,10,5.0,10.0,84,0.00,,,0.08,meteohub,2013-08-01 15:57:00,
2013-08-01 12:02:00,73.0,68.5,29.93,WSW,258,2.0,10.0,86,0.00,,,0.08,meteohub,2013-08-01 16:02:00,
2013-08-01 12:12:00,73.6,68.2,29.93,North,10,3.0,13.0,83,0.00,,,0.08,meteohub,2013-08-01 16:12:00,
2013-08-01 12:17:00,73.9,67.8,29.93,NNW,348,3.0,13.0,81,0.00,,,0.08,meteohub,2013-08-01 16:17:00,
2013-08-01 12:22:00,73.2,66.0,29.93,North,10,6.0,13.0,78,0.00,,,0.08,meteohub,2013-08-01 16:22:00,
2013-08-01 12:27:00,73.4,66.9,29.96,WNW,302,3.0,13.0,80,0.00,,,0.08,meteohub,2013-08-01 16:27:00,
2013-08-01 12:32:00,73.6,67.5,29.96,WNW,302,3.0,8.0,81,0.00,,,0.08,meteohub,2013-08-01 16:32:00,
2013-08-01 12:37:00,73.2,66.4,29.96,SSE,168,3.0,8.0,79,0.00,,,0.08,meteohub,2013-08-01 16:37:00,
2013-08-01 12:47:00,73.2,65.1,29.93,NW,325,7.0,9.0,76,0.00,,,0.08,meteohub,2013-08-01 16:47:00,
2013-08-01 12:57:00,73.0,65.5,29.93,NW,325,2.0,11.0,77,0.00,,,0.08,meteohub,2013-08-01 16:57:00,
2013-08-01 13:02:00,73.4,64.9,29.93,NNW,348,2.0,12.0,75,0.00,,,0.08,meteohub,2013-08-01 17:02:00,
2013-08-01 13:12:00,73.9,64.4,29.93,ENE,78,4.0,7.0,72,0.00,,,0.08,meteohub,2013-08-01 17:12:00,
2013-08-01 13:22:00,74.8,64.4,29.93,North,10,5.0,12.0,70,0.00,,,0.08,meteohub,2013-08-01 17:22:00,
2013-08-01 13:27:00,75.2,64.4,29.93,NNW,348,13.0,16.0,69,0.00,,,0.08,meteohub,2013-08-01 17:27:00,
2013-08-01 13:32:00,74.7,63.3,29.93,NNW,348,10.0,18.0,68,0.00,,,0.08,meteohub,2013-08-01 17:32:00,
2013-08-01 13:37:00,74.5,63.7,29.93,NW,325,15.0,18.0,69,0.00,,,0.08,meteohub,2013-08-01 17:37:00,
2013-08-01 13:47:00,74.8,62.8,29.93,NW,325,11.0,17.0,66,0.00,,,0.08,meteohub,2013-08-01 17:47:00,
2013-08-01 13:57:00,75.2,63.1,29.93,ENE,78,9.0,17.0,66,0.00,,,0.08,meteohub,2013-08-01 17:57:00,
2013-08-01 14:07:00,75.2,62.6,29.93,West,280,8.0,19.0,65,0.00,,,0.08,meteohub,2013-08-01 18:07:00,
2013-08-01 14:12:00,75.6,63.0,29.93,NNE,32,4.0,19.0,65,0.00,,,0.08,meteohub,2013-08-01 18:12:00,
2013-08-01 14:22:00,76.3,62.8,29.93,SSW,212,8.0,16.0,63,0.00,,,0.08,meteohub,2013-08-01 18:22:00,
2013-08-01 14:37:00,75.6,62.6,29.93,WSW,258,6.0,13.0,64,0.00,,,0.08,meteohub,2013-08-01 18:37:00,
2013-08-01 14:47:00,74.5,61.5,29.93,East,100,5.0,11.0,64,0.00,,,0.08,meteohub,2013-08-01 18:47:00,
2013-08-01 14:52:00,74.1,61.5,29.93,NW,325,3.0,12.0,65,0.00,,,0.08,meteohub,2013-08-01 18:52:00,
2013-08-01 14:57:00,75.4,64.0,29.93,ESE,122,7.0,12.0,68,0.00,,,0.08,meteohub,2013-08-01 18:57:00,
2013-08-01 15:02:00,76.1,63.9,29.93,NE,55,11.0,13.0,66,0.00,,,0.08,meteohub,2013-08-01 19:02:00,
2013-08-01 15:12:00,77.0,63.9,29.93,South,190,2.0,13.0,64,0.00,,,0.08,meteohub,2013-08-01 19:12:00,
2013-08-01 15:17:00,77.0,63.0,29.93,South,190,4.0,11.0,62,0.00,,,0.08,meteohub,2013-08-01 19:17:00,
2013-08-01 15:22:00,77.7,64.9,29.93,SW,235,5.0,10.0,65,0.00,,,0.08,meteohub,2013-08-01 19:22:00,
2013-08-01 15:32:00,77.7,61.7,29.93,East,100,2.0,13.0,58,0.00,,,0.08,meteohub,2013-08-01 19:32:00,
2013-08-01 15:37:00,77.9,63.0,29.93,SSW,212,4.0,13.0,60,0.00,,,0.08,meteohub,2013-08-01 19:37:00,
2013-08-01 15:42:00,78.3,62.2,29.93,NNE,32,11.0,16.0,58,0.00,,,0.08,meteohub,2013-08-01 19:42:00,
2013-08-01 15:47:00,78.1,61.5,29.93,NNW,348,5.0,16.0,57,0.00,,,0.08,meteohub,2013-08-01 19:47:00,
2013-08-01 15:52:00,77.7,62.2,29.93,NNW,348,9.0,15.0,59,0.00,,,0.08,meteohub,2013-08-01 19:52:00,
2013-08-01 16:02:00,76.8,61.9,29.93,West,280,16.0,16.0,60,0.00,,,0.08,meteohub,2013-08-01 20:02:00,
2013-08-01 16:07:00,76.1,61.7,29.93,WSW,258,4.0,16.0,61,0.00,,,0.08,meteohub,2013-08-01 20:07:00,
2013-08-01 16:12:00,75.6,62.1,29.93,NNW,348,13.0,16.0,63,0.00,,,0.08,meteohub,2013-08-01 20:12:00,
2013-08-01 16:17:00,75.6,61.7,29.93,WNW,302,8.0,17.0,62,0.00,,,0.08,meteohub,2013-08-01 20:17:00,
2013-08-01 16:22:00,76.3,63.7,29.93,West,280,3.0,17.0,65,0.00,,,0.08,meteohub,2013-08-01 20:22:00,
2013-08-01 16:27:00,76.3,63.1,29.93,NW,325,5.0,15.0,64,0.00,,,0.08,meteohub,2013-08-01 20:27:00,
2013-08-01 16:37:00,76.3,61.9,29.93,NNE,32,2.0,19.0,61,0.00,,,0.08,meteohub,2013-08-01 20:37:00,
2013-08-01 16:42:00,77.2,63.7,29.90,West,280,4.0,19.0,63,0.00,,,0.08,meteohub,2013-08-01 20:42:00,
2013-08-01 16:47:00,77.5,62.6,29.90,NNW,348,7.0,19.0,60,0.00,,,0.08,meteohub,2013-08-01 20:47:00,
2013-08-01 16:52:00,77.2,61.3,29.90,NNW,348,7.0,13.0,58,0.00,,,0.08,meteohub,2013-08-01 20:52:00,
2013-08-01 17:02:00,77.7,61.7,29.90,South,190,5.0,13.0,58,0.00,,,0.08,meteohub,2013-08-01 21:02:00,
2013-08-01 17:07:00,77.5,60.6,29.90,NNW,348,5.0,13.0,56,0.00,,,0.08,meteohub,2013-08-01 21:07:00,
2013-08-01 17:16:00,78.3,61.3,29.93,SW,235,6.0,13.0,56,0.00,,,0.08,meteohub,2013-08-01 21:16:00,
2013-08-01 17:22:00,77.9,61.5,29.93,NNE,32,7.0,13.0,57,0.00,,,0.08,meteohub,2013-08-01 21:22:00,
2013-08-01 17:31:00,77.5,59.5,29.93,SSE,168,2.0,15.0,54,0.00,,,0.08,meteohub,2013-08-01 21:31:00,
2013-08-01 17:37:00,76.6,58.8,29.93,South,190,8.0,15.0,54,0.00,,,0.08,meteohub,2013-08-01 21:37:00,
2013-08-01 17:42:00,76.1,58.8,29.90,NW,325,2.0,16.0,55,0.00,,,0.08,meteohub,2013-08-01 21:42:00,
2013-08-01 17:52:00,75.2,57.9,29.90,NW,325,8.0,16.0,55,0.00,,,0.08,meteohub,2013-08-01 21:52:00,
2013-08-01 18:02:00,74.8,58.6,29.93,North,10,4.0,9.0,57,0.00,,,0.08,meteohub,2013-08-01 22:02:00,
2013-08-01 18:07:00,74.7,59.4,29.93,South,190,15.0,15.0,59,0.00,,,0.08,meteohub,2013-08-01 22:07:00,
2013-08-01 18:17:00,73.9,57.7,29.93,South,190,3.0,15.0,57,0.00,,,0.08,meteohub,2013-08-01 22:17:00,
2013-08-01 18:22:00,74.1,59.4,29.93,SSE,168,5.0,15.0,60,0.00,,,0.08,meteohub,2013-08-01 22:22:00,
2013-08-01 18:32:00,73.8,61.3,29.93,SE,145,5.0,7.0,65,0.00,,,0.08,meteohub,2013-08-01 22:32:00,
2013-08-01 18:42:00,73.2,60.8,29.93,ESE,122,7.0,7.0,65,0.00,,,0.08,meteohub,2013-08-01 22:42:00,
2013-08-01 18:52:00,72.9,61.7,29.93,South,190,5.0,9.0,68,0.00,,,0.08,meteohub,2013-08-01 22:52:00,
2013-08-01 18:57:00,72.9,61.7,29.93,South,190,3.0,9.0,68,0.00,,,0.08,meteohub,2013-08-01 22:57:00,
2013-08-01 19:07:00,73.0,61.0,29.93,South,190,4.0,6.0,66,0.00,,,0.08,meteohub,2013-08-01 23:07:00,
2013-08-01 19:17:00,73.2,60.8,29.93,SSE,168,3.0,5.0,65,0.00,,,0.08,meteohub,2013-08-01 23:17:00,
2013-08-01 19:22:00,73.0,60.6,29.93,SE,145,0.0,8.0,65,0.00,,,0.08,meteohub,2013-08-01 23:22:00,
2013-08-01 19:32:00,72.5,60.1,29.93,SE,145,5.0,9.0,65,0.00,,,0.08,meteohub,2013-08-01 23:32:00,
2013-08-01 19:41:00,72.3,61.2,29.90,SE,145,3.0,11.0,68,0.00,,,0.08,meteohub,2013-08-01 23:41:00,
2013-08-01 19:47:00,71.8,61.0,29.90,ESE,122,3.0,11.0,69,0.00,,,0.08,meteohub,2013-08-01 23:47:00,
2013-08-01 19:52:00,71.6,61.0,29.90,ESE,122,5.0,6.0,69,0.00,,,0.08,meteohub,2013-08-01 23:52:00,
2013-08-01 19:57:00,71.2,61.0,29.93,South,190,0.0,6.0,70,0.00,,,0.08,meteohub,2013-08-01 23:57:00,
2013-08-01 20:07:00,71.1,60.8,29.93,ESE,122,3.0,6.0,70,0.00,,,0.08,meteohub,2013-08-02 00:07:00,
2013-08-01 20:12:00,70.7,60.8,29.93,NW,325,0.0,5.0,71,0.00,,,0.08,meteohub,2013-08-02 00:12:00,
2013-08-01 20:22:00,70.3,60.8,29.93,SSE,168,3.0,4.0,72,0.00,,,0.08,meteohub,2013-08-02 00:22:00,
2013-08-01 20:27:00,70.0,60.6,29.93,SE,145,3.0,4.0,72,0.00,,,0.08,meteohub,2013-08-02 00:27:00,
2013-08-01 20:37:00,69.4,60.4,29.93,SSE,168,4.0,7.0,73,0.00,,,0.08,meteohub,2013-08-02 00:37:00,
2013-08-01 20:42:00,69.3,60.3,29.93,ESE,122,0.0,7.0,73,0.00,,,0.08,meteohub,2013-08-02 00:42:00,
2013-08-01 20:47:00,69.1,60.4,29.93,SE,145,5.0,5.0,74,0.00,,,0.08,meteohub,2013-08-02 00:47:00,
2013-08-01 20:52:00,68.9,60.3,29.93,SE,145,6.0,6.0,74,0.00,,,0.08,meteohub,2013-08-02 00:52:00,
2013-08-01 20:57:00,68.5,60.3,29.96,SE,145,3.0,6.0,75,0.00,,,0.08,meteohub,2013-08-02 00:57:00,
2013-08-01 21:02:00,68.4,60.1,29.96,ESE,122,3.0,8.0,75,0.00,,,0.08,meteohub,2013-08-02 01:02:00,
2013-08-01 21:12:00,67.8,59.9,29.93,ESE,122,0.0,8.0,76,0.00,,,0.08,meteohub,2013-08-02 01:12:00,
2013-08-01 21:21:00,67.6,60.3,29.93,ESE,122,3.0,3.0,77,0.00,,,0.08,meteohub,2013-08-02 01:21:00,
2013-08-01 21:27:00,67.1,60.1,29.96,East,100,3.0,7.0,78,0.00,,,0.08,meteohub,2013-08-02 01:27:00,
2013-08-01 21:32:00,67.3,60.3,29.96,ESE,122,2.0,7.0,78,0.00,,,0.08,meteohub,2013-08-02 01:32:00,
2013-08-01 21:36:00,67.1,60.1,29.96,East,100,0.0,7.0,78,0.00,,,0.08,meteohub,2013-08-02 01:36:00,
2013-08-01 21:41:00,66.9,59.9,29.99,East,100,0.0,4.0,78,0.00,,,0.08,meteohub,2013-08-02 01:41:00,
2013-08-01 21:47:00,66.7,59.7,29.99,SSE,168,0.0,3.0,78,0.00,,,0.08,meteohub,2013-08-02 01:47:00,
2013-08-01 21:52:00,66.6,59.5,29.99,SE,145,0.0,0.0,78,0.00,,,0.08,meteohub,2013-08-02 01:52:00,
2013-08-01 22:02:00,66.4,59.7,29.96,ESE,122,0.0,0.0,79,0.00,,,0.08,meteohub,2013-08-02 02:02:00,
2013-08-01 22:12:00,66.2,59.5,29.99,SE,145,0.0,0.0,79,0.00,,,0.08,meteohub,2013-08-02 02:12:00,
2013-08-01 22:22:00,65.7,59.4,29.99,SSE,168,0.0,0.0,80,0.00,,,0.08,meteohub,2013-08-02 02:22:00,
2013-08-01 22:26:00,65.7,59.4,29.99,SSE,168,0.0,0.0,80,0.00,,,0.08,meteohub,2013-08-02 02:26:00,
2013-08-01 22:37:00,65.3,59.4,29.99,North,10,0.0,0.0,81,0.00,,,0.08,meteohub,2013-08-02 02:37:00,
2013-08-01 22:47:00,65.1,59.5,29.99,North,10,0.0,0.0,82,0.00,,,0.08,meteohub,2013-08-02 02:47:00,
2013-08-01 22:52:00,64.8,59.2,29.99,SSW,212,0.0,0.0,82,0.00,,,0.08,meteohub,2013-08-02 02:52:00,
2013-08-01 23:02:00,64.4,58.8,29.99,East,100,3.0,3.0,82,0.00,,,0.08,meteohub,2013-08-02 03:02:00,
2013-08-01 23:11:00,64.2,59.0,29.96,SE,145,0.0,3.0,83,0.00,,,0.08,meteohub,2013-08-02 03:11:00,
2013-08-01 23:16:00,64.2,59.0,29.96,SE,145,0.0,3.0,83,0.00,,,0.08,meteohub,2013-08-02 03:16:00,
2013-08-01 23:22:00,63.9,58.6,29.96,West,280,0.0,0.0,83,0.00,,,0.08,meteohub,2013-08-02 03:22:00,
2013-08-01 23:27:00,63.9,58.6,29.99,West,280,0.0,0.0,83,0.00,,,0.08,meteohub,2013-08-02 03:27:00,
2013-08-01 23:32:00,63.7,58.5,29.99,West,280,0.0,0.0,83,0.00,,,0.08,meteohub,2013-08-02 03:32:00,
2013-08-01 23:42:00,63.3,58.1,29.99,NW,325,0.0,0.0,83,0.00,,,0.08,meteohub,2013-08-02 03:42:00,
2013-08-01 23:47:00,63.3,58.5,29.99,East,100,0.0,0.0,84,0.00,,,0.08,meteohub,2013-08-02 03:47:00,
2013-08-01 23:57:00,63.0,58.5,29.99,East,100,0.0,0.0,85,0.00,,,0.08,meteohub,2013-08-02 03:57:00,